sensor_id;sensor_type;location;lat;lon;timestamp;temperature;humidity
55151;DHT22;41041;43.162;20.538;2022-09-01T00:02:23;487.10;2380.80
55151;DHT22;41041;43.162;20.538;2022-09-01T00:04:52;487.20;2380.80
55151;DHT22;41041;43.162;20.538;2022-09-01T00:07:48;487.30;2380.80
55151;DHT22;41041;43.162;20.538;2022-09-01T00:10:17;487.10;2380.80
55151;DHT22;41041;43.162;20.538;2022-09-01T00:12:43;486.90;2380.80
55151;DHT22;41041;43.162;20.538;2022-09-01T00:52:20;486.90;2380.80
55151;DHT22;41041;43.162;20.538;2022-09-01T00:54:58;486.70;2380.80
55151;DHT22;41041;43.162;20.538;2022-09-01T00:57:27;486.70;2380.80
55151;DHT22;41041;43.162;20.538;2022-09-01T01:00:04;486.60;2380.80
55151;DHT22;41041;43.162;20.538;2022-09-01T01:02:32;486.60;2380.80
55151;DHT22;41041;43.162;20.538;2022-09-01T01:04:59;486.40;2380.80
55151;DHT22;41041;43.162;20.538;2022-09-01T01:07:28;486.40;2380.80
55151;DHT22;41041;43.162;20.538;2022-09-01T01:09:55;486.60;2380.80
55151;DHT22;41041;43.162;20.538;2022-09-01T01:12:21;486.60;2380.80
55151;DHT22;41041;43.162;20.538;2022-09-01T01:14:49;486.60;2380.80
55151;DHT22;41041;43.162;20.538;2022-09-01T01:17:16;486.70;2380.80
55151;DHT22;41041;43.162;20.538;2022-09-01T01:19:44;486.70;2380.80
55151;DHT22;41041;43.162;20.538;2022-09-01T01:50:28;461.60;2380.80
55151;DHT22;41041;43.162;20.538;2022-09-01T03:57:13;461.40;2380.80
55151;DHT22;41041;43.162;20.538;2022-09-01T04:04:34;461.30;2380.80
55151;DHT22;41041;43.162;20.538;2022-09-01T04:06:59;461.00;2380.80
55151;DHT22;41041;43.162;20.538;2022-09-01T04:09:25;461.20;2380.80
55151;DHT22;41041;43.162;20.538;2022-09-01T04:11:52;461.10;2380.80
55151;DHT22;41041;43.162;20.538;2022-09-01T04:14:18;461.00;2380.80
55151;DHT22;41041;43.162;20.538;2022-09-01T04:16:46;461.10;2380.80
55151;DHT22;41041;43.162;20.538;2022-09-01T04:19:34;461.10;2380.80
55151;DHT22;41041;43.162;20.538;2022-09-01T04:22:01;461.10;2380.80
55151;DHT22;41041;43.162;20.538;2022-09-01T04:24:31;461.10;2380.80
55151;DHT22;41041;43.162;20.538;2022-09-01T04:26:59;461.30;2380.80
55151;DHT22;41041;43.162;20.538;2022-09-01T04:29:27;461.40;2380.80
55151;DHT22;41041;43.162;20.538;2022-09-01T04:31:56;461.50;2380.80
55151;DHT22;41041;43.162;20.538;2022-09-01T04:34:27;461.70;2380.80
55151;DHT22;41041;43.162;20.538;2022-09-01T04:36:53;486.40;2380.80
55151;DHT22;41041;43.162;20.538;2022-09-01T04:39:22;486.40;2380.80
55151;DHT22;41041;43.162;20.538;2022-09-01T04:41:48;461.70;2380.80
55151;DHT22;41041;43.162;20.538;2022-09-01T04:44:15;486.40;2380.80
55151;DHT22;41041;43.162;20.538;2022-09-01T04:46:44;461.50;2380.80
55151;DHT22;41041;43.162;20.538;2022-09-01T04:49:15;461.50;2380.80
55151;DHT22;41041;43.162;20.538;2022-09-01T04:51:46;461.60;2380.80
55151;DHT22;41041;43.162;20.538;2022-09-01T04:54:13;461.70;2380.80
55151;DHT22;41041;43.162;20.538;2022-09-01T04:56:44;461.70;2380.80
55151;DHT22;41041;43.162;20.538;2022-09-01T04:59:11;461.70;2380.80
55151;DHT22;41041;43.162;20.538;2022-09-01T05:01:38;486.40;2380.80
55151;DHT22;41041;43.162;20.538;2022-09-01T05:04:40;461.60;2380.80
55151;DHT22;41041;43.162;20.538;2022-09-01T05:07:11;461.40;2380.80
55151;DHT22;41041;43.162;20.538;2022-09-01T05:09:38;461.50;2380.80
55151;DHT22;41041;43.162;20.538;2022-09-01T05:12:05;461.40;2380.80
55151;DHT22;41041;43.162;20.538;2022-09-01T05:14:43;461.40;2380.80
55151;DHT22;41041;43.162;20.538;2022-09-01T05:17:10;461.60;2380.80
55151;DHT22;41041;43.162;20.538;2022-09-01T05:19:39;461.60;2380.80
55151;DHT22;41041;43.162;20.538;2022-09-01T05:22:06;461.60;2380.80
55151;DHT22;41041;43.162;20.538;2022-09-01T05:24:37;486.40;2380.80
55151;DHT22;41041;43.162;20.538;2022-09-01T05:49:18;487.20;2380.80
55151;DHT22;41041;43.162;20.538;2022-09-01T05:51:47;487.20;2380.80
55151;DHT22;41041;43.162;20.538;2022-09-01T06:16:25;512.20;2380.80
55151;DHT22;41041;43.162;20.538;2022-09-01T06:18:53;486.80;2380.80
55151;DHT22;41041;43.162;20.538;2022-09-01T06:21:20;486.80;2380.80
55151;DHT22;41041;43.162;20.538;2022-09-01T06:23:47;486.70;2380.80
55151;DHT22;41041;43.162;20.538;2022-09-01T06:26:24;486.80;2380.80
55151;DHT22;41041;43.162;20.538;2022-09-01T06:29:00;486.80;2380.80
55151;DHT22;41041;43.162;20.538;2022-09-01T06:31:29;486.80;2380.80
55151;DHT22;41041;43.162;20.538;2022-09-01T06:34:02;486.90;2380.80
55151;DHT22;41041;43.162;20.538;2022-09-01T06:36:29;486.90;2380.80
55151;DHT22;41041;43.162;20.538;2022-09-01T06:38:57;486.90;2380.80
55151;DHT22;41041;43.162;20.538;2022-09-01T06:41:25;487.00;2380.80
55151;DHT22;41041;43.162;20.538;2022-09-01T06:44:00;487.00;2380.80
55151;DHT22;41041;43.162;20.538;2022-09-01T06:46:26;487.00;2380.80
55151;DHT22;41041;43.162;20.538;2022-09-01T06:48:54;487.10;2380.80
55151;DHT22;41041;43.162;20.538;2022-09-01T06:51:25;487.10;2380.80
55151;DHT22;41041;43.162;20.538;2022-09-01T07:06:33;512.20;2380.80
55151;DHT22;41041;43.162;20.538;2022-09-01T07:11:30;512.30;2380.80
55151;DHT22;41041;43.162;20.538;2022-09-01T07:13:59;512.10;2380.80
55151;DHT22;41041;43.162;20.538;2022-09-01T07:16:31;512.10;2380.80
55151;DHT22;41041;43.162;20.538;2022-09-01T07:19:00;512.20;2380.80
55151;DHT22;41041;43.162;20.538;2022-09-01T07:21:42;512.30;2380.80
55151;DHT22;41041;43.162;20.538;2022-09-01T07:24:10;512.40;2380.80
55151;DHT22;41041;43.162;20.538;2022-09-01T07:26:39;512.30;2380.80
55151;DHT22;41041;43.162;20.538;2022-09-01T07:29:06;512.40;2380.80
55151;DHT22;41041;43.162;20.538;2022-09-01T07:31:37;512.80;2380.80
55151;DHT22;41041;43.162;20.538;2022-09-01T07:34:06;512.70;2380.80
55151;DHT22;41041;43.162;20.538;2022-09-01T07:39:19;537.80;2406.40
55151;DHT22;41041;43.162;20.538;2022-09-01T07:41:45;512.90;2380.80
55151;DHT22;41041;43.162;20.538;2022-09-01T07:44:11;537.60;2406.40
55151;DHT22;41041;43.162;20.538;2022-09-01T07:46:39;537.90;2406.40
55151;DHT22;41041;43.162;20.538;2022-09-01T07:49:05;537.90;2406.40
55151;DHT22;41041;43.162;20.538;2022-09-01T07:51:31;538.10;2406.40
55151;DHT22;41041;43.162;20.538;2022-09-01T07:53:59;538.20;2406.40
55151;DHT22;41041;43.162;20.538;2022-09-01T07:57:17;538.30;2406.40
55151;DHT22;41041;43.162;20.538;2022-09-01T08:11:09;564.00;2432.00
55151;DHT22;41041;43.162;20.538;2022-09-01T08:14:01;564.00;2432.00
55151;DHT22;41041;43.162;20.538;2022-09-01T08:17:14;564.00;2432.00
55151;DHT22;41041;43.162;20.538;2022-09-01T08:20:00;564.00;2432.00
55151;DHT22;41041;43.162;20.538;2022-09-01T08:22:26;588.80;2432.00
55151;DHT22;41041;43.162;20.538;2022-09-01T08:24:53;589.00;2432.00
55151;DHT22;41041;43.162;20.538;2022-09-01T08:27:24;588.80;2432.00
55151;DHT22;41041;43.162;20.538;2022-09-01T08:57:44;589.70;2432.00
55151;DHT22;41041;43.162;20.538;2022-09-01T11:18:55;666.20;2355.20
55151;DHT22;41041;43.162;20.538;2022-09-01T11:21:41;666.40;2278.40
55151;DHT22;41041;43.162;20.538;2022-09-01T11:27:06;691.20;2355.20
55151;DHT22;41041;43.162;20.538;2022-09-01T11:32:46;691.30;2278.40
55151;DHT22;41041;43.162;20.538;2022-09-01T11:35:21;666.50;2329.60
55151;DHT22;41041;43.162;20.538;2022-09-01T11:37:50;691.20;2304.00
55151;DHT22;41041;43.162;20.538;2022-09-01T11:40:23;691.40;2355.20
55151;DHT22;41041;43.162;20.538;2022-09-01T11:42:52;691.60;2252.80
55151;DHT22;41041;43.162;20.538;2022-09-01T11:45:26;691.70;2227.20
55151;DHT22;41041;43.162;20.538;2022-09-01T11:47:57;691.80;2201.60
55151;DHT22;41041;43.162;20.538;2022-09-01T11:50:28;691.90;2227.20
55151;DHT22;41041;43.162;20.538;2022-09-01T11:55:44;691.90;2124.80
55151;DHT22;41041;43.162;20.538;2022-09-01T11:58:28;692.00;2150.40
55151;DHT22;41041;43.162;20.538;2022-09-01T12:03:36;716.80;2201.60
55151;DHT22;41041;43.162;20.538;2022-09-01T12:06:04;717.10;2150.40
55151;DHT22;41041;43.162;20.538;2022-09-01T12:08:40;717.30;2176.00
55151;DHT22;41041;43.162;20.538;2022-09-01T12:11:23;717.10;2124.80
55151;DHT22;41041;43.162;20.538;2022-09-01T12:16:29;717.70;2073.60
55151;DHT22;41041;43.162;20.538;2022-09-01T12:18:57;717.40;1996.80
55151;DHT22;41041;43.162;20.538;2022-09-01T12:21:54;717.40;1971.20
55151;DHT22;41041;43.162;20.538;2022-09-01T12:24:22;717.40;1971.20
55151;DHT22;41041;43.162;20.538;2022-09-01T12:26:53;717.40;1996.80
55151;DHT22;41041;43.162;20.538;2022-09-01T12:29:20;717.50;1945.60
55151;DHT22;41041;43.162;20.538;2022-09-01T12:31:49;717.60;1920.00
55151;DHT22;41041;43.162;20.538;2022-09-01T12:34:59;717.60;1920.00
55151;DHT22;41041;43.162;20.538;2022-09-01T12:37:26;717.70;1945.60
55151;DHT22;41041;43.162;20.538;2022-09-01T12:39:54;742.40;1945.60
55151;DHT22;41041;43.162;20.538;2022-09-01T12:42:29;742.40;1920.00
55151;DHT22;41041;43.162;20.538;2022-09-01T12:45:03;742.70;1868.80
55151;DHT22;41041;43.162;20.538;2022-09-01T12:52:49;742.80;1868.80
55151;DHT22;41041;43.162;20.538;2022-09-01T12:55:24;742.60;1894.40
55151;DHT22;41041;43.162;20.538;2022-09-01T12:57:55;742.50;1894.40
55151;DHT22;41041;43.162;20.538;2022-09-01T13:00:26;742.50;1843.20
55151;DHT22;41041;43.162;20.538;2022-09-01T13:05:37;742.40;1894.40
55151;DHT22;41041;43.162;20.538;2022-09-01T13:08:21;717.60;1817.60
55151;DHT22;41041;43.162;20.538;2022-09-01T13:25:34;692.10;1996.80
55151;DHT22;41041;43.162;20.538;2022-09-01T13:28:00;691.60;2099.20
55151;DHT22;41041;43.162;20.538;2022-09-01T13:30:28;691.50;2124.80
55151;DHT22;41041;43.162;20.538;2022-09-01T13:32:55;691.20;2176.00
55151;DHT22;41041;43.162;20.538;2022-09-01T13:35:22;691.20;2176.00
55151;DHT22;41041;43.162;20.538;2022-09-01T13:37:51;691.20;2176.00
55151;DHT22;41041;43.162;20.538;2022-09-01T13:40:18;666.30;2201.60
55151;DHT22;41041;43.162;20.538;2022-09-01T13:42:49;666.30;2201.60
55151;DHT22;41041;43.162;20.538;2022-09-01T13:45:17;666.20;2227.20
55151;DHT22;41041;43.162;20.538;2022-09-01T13:47:45;666.20;2227.20
55151;DHT22;41041;43.162;20.538;2022-09-01T13:50:17;666.00;2227.20
55151;DHT22;41041;43.162;20.538;2022-09-01T13:52:50;665.90;2227.20
55151;DHT22;41041;43.162;20.538;2022-09-01T13:55:23;666.00;2252.80
55151;DHT22;41041;43.162;20.538;2022-09-01T13:57:49;665.90;2304.00
55151;DHT22;41041;43.162;20.538;2022-09-01T14:00:18;665.80;2304.00
55151;DHT22;41041;43.162;20.538;2022-09-01T14:02:47;665.90;2329.60
55151;DHT22;41041;43.162;20.538;2022-09-01T14:05:15;665.80;2329.60
55151;DHT22;41041;43.162;20.538;2022-09-01T14:07:41;665.60;2304.00
55151;DHT22;41041;43.162;20.538;2022-09-01T14:10:07;665.60;2329.60
55151;DHT22;41041;43.162;20.538;2022-09-01T14:12:33;640.90;2304.00
55151;DHT22;41041;43.162;20.538;2022-09-01T14:14:59;665.60;2329.60
55151;DHT22;41041;43.162;20.538;2022-09-01T14:17:25;640.80;2329.60
55151;DHT22;41041;43.162;20.538;2022-09-01T14:19:51;640.80;2355.20
55151;DHT22;41041;43.162;20.538;2022-09-01T14:22:17;640.80;2355.20
55151;DHT22;41041;43.162;20.538;2022-09-01T14:24:43;665.60;2380.80
55151;DHT22;41041;43.162;20.538;2022-09-01T14:27:10;640.60;2406.40
55151;DHT22;41041;43.162;20.538;2022-09-01T14:29:36;640.60;2406.40
55151;DHT22;41041;43.162;20.538;2022-09-01T14:32:03;640.30;2406.40
55151;DHT22;41041;43.162;20.538;2022-09-01T14:34:32;640.10;2432.00
55151;DHT22;41041;43.162;20.538;2022-09-01T14:36:57;640.10;2406.40
55151;DHT22;41041;43.162;20.538;2022-09-01T14:39:32;640.00;2432.00
55151;DHT22;41041;43.162;20.538;2022-09-01T14:41:58;615.10;2432.00
55151;DHT22;41041;43.162;20.538;2022-09-01T14:46:53;615.10;2432.00
55151;DHT22;41041;43.162;20.538;2022-09-01T14:49:19;614.90;2432.00
55151;DHT22;41041;43.162;20.538;2022-09-01T14:51:45;614.90;2432.00
55151;DHT22;41041;43.162;20.538;2022-09-01T14:54:11;614.50;2432.00
55151;DHT22;41041;43.162;20.538;2022-09-01T15:04:43;589.00;2432.00
55151;DHT22;41041;43.162;20.538;2022-09-01T15:07:09;588.80;2432.00
55151;DHT22;41041;43.162;20.538;2022-09-01T15:09:40;588.80;2432.00
55151;DHT22;41041;43.162;20.538;2022-09-01T15:12:08;564.00;2432.00
55151;DHT22;41041;43.162;20.538;2022-09-01T15:14:37;564.00;2432.00
55151;DHT22;41041;43.162;20.538;2022-09-01T15:17:04;563.90;2432.00
55151;DHT22;41041;43.162;20.538;2022-09-01T15:19:31;564.00;2432.00
55151;DHT22;41041;43.162;20.538;2022-09-01T15:21:59;564.00;2432.00
55151;DHT22;41041;43.162;20.538;2022-09-01T15:24:26;564.00;2432.00
55151;DHT22;41041;43.162;20.538;2022-09-01T15:26:52;564.00;2432.00
55151;DHT22;41041;43.162;20.538;2022-09-01T15:31:53;588.80;2432.00
55151;DHT22;41041;43.162;20.538;2022-09-01T15:34:21;588.90;2432.00
55151;DHT22;41041;43.162;20.538;2022-09-01T15:39:51;588.80;2432.00
55151;DHT22;41041;43.162;20.538;2022-09-01T15:48:27;589.10;2432.00
55151;DHT22;41041;43.162;20.538;2022-09-01T16:11:27;588.80;2432.00
55151;DHT22;41041;43.162;20.538;2022-09-01T16:13:53;564.10;2432.00
55151;DHT22;41041;43.162;20.538;2022-09-01T16:16:35;564.00;2432.00
55151;DHT22;41041;43.162;20.538;2022-09-01T16:22:00;563.60;2432.00
55151;DHT22;41041;43.162;20.538;2022-09-01T16:24:39;563.70;2432.00
55151;DHT22;41041;43.162;20.538;2022-09-01T16:29:58;563.50;2432.00
55151;DHT22;41041;43.162;20.538;2022-09-01T16:32:25;563.30;2432.00
55151;DHT22;41041;43.162;20.538;2022-09-01T16:35:03;538.30;2406.40
55151;DHT22;41041;43.162;20.538;2022-09-01T16:38:15;538.30;2406.40
55151;DHT22;41041;43.162;20.538;2022-09-01T16:46:46;538.40;2406.40
55151;DHT22;41041;43.162;20.538;2022-09-01T20:50:54;487.30;2380.80
55151;DHT22;41041;43.162;20.538;2022-09-01T21:04:39;487.10;2380.80
55151;DHT22;41041;43.162;20.538;2022-09-01T21:07:48;487.20;2380.80
55151;DHT22;41041;43.162;20.538;2022-09-01T21:13:20;487.20;2380.80
55151;DHT22;41041;43.162;20.538;2022-09-01T21:16:08;487.20;2380.80
55151;DHT22;41041;43.162;20.538;2022-09-01T21:19:02;512.00;2380.80
55151;DHT22;41041;43.162;20.538;2022-09-01T21:24:03;512.00;2380.80
55151;DHT22;41041;43.162;20.538;2022-09-01T21:26:36;512.00;2380.80
55151;DHT22;41041;43.162;20.538;2022-09-01T21:29:18;512.00;2380.80
55151;DHT22;41041;43.162;20.538;2022-09-01T21:34:13;512.50;2380.80
55151;DHT22;41041;43.162;20.538;2022-09-01T21:36:38;512.20;2380.80
55151;DHT22;41041;43.162;20.538;2022-09-01T21:39:04;512.10;2380.80
55151;DHT22;41041;43.162;20.538;2022-09-01T21:41:33;487.30;2380.80
55151;DHT22;41041;43.162;20.538;2022-09-01T21:44:19;487.30;2380.80
55151;DHT22;41041;43.162;20.538;2022-09-01T21:46:47;487.20;2380.80
55151;DHT22;41041;43.162;20.538;2022-09-01T21:49:33;512.00;2380.80
55151;DHT22;41041;43.162;20.538;2022-09-01T21:52:01;512.00;2380.80
55151;DHT22;41041;43.162;20.538;2022-09-01T21:54:27;512.10;2380.80
55151;DHT22;41041;43.162;20.538;2022-09-01T21:56:53;512.20;2380.80
55151;DHT22;41041;43.162;20.538;2022-09-01T21:59:20;512.10;2380.80
55151;DHT22;41041;43.162;20.538;2022-09-01T22:01:47;512.00;2380.80
55151;DHT22;41041;43.162;20.538;2022-09-01T22:04:15;487.30;2380.80
55151;DHT22;41041;43.162;20.538;2022-09-01T22:06:43;487.20;2380.80
55151;DHT22;41041;43.162;20.538;2022-09-01T22:09:09;487.30;2380.80
55151;DHT22;41041;43.162;20.538;2022-09-01T22:11:35;487.20;2380.80
55151;DHT22;41041;43.162;20.538;2022-09-01T22:14:03;487.20;2380.80
55151;DHT22;41041;43.162;20.538;2022-09-01T22:16:30;487.30;2380.80
55151;DHT22;41041;43.162;20.538;2022-09-01T22:18:57;487.20;2380.80
55151;DHT22;41041;43.162;20.538;2022-09-01T22:21:23;487.20;2380.80
55151;DHT22;41041;43.162;20.538;2022-09-01T22:23:49;487.30;2380.80
55151;DHT22;41041;43.162;20.538;2022-09-01T22:26:27;487.20;2380.80
55151;DHT22;41041;43.162;20.538;2022-09-01T22:29:01;487.10;2380.80
55151;DHT22;41041;43.162;20.538;2022-09-01T22:31:37;487.10;2380.80
55151;DHT22;41041;43.162;20.538;2022-09-01T22:34:04;487.00;2380.80
55151;DHT22;41041;43.162;20.538;2022-09-01T22:36:33;487.00;2380.80
55151;DHT22;41041;43.162;20.538;2022-09-01T22:39:01;486.90;2380.80
55151;DHT22;41041;43.162;20.538;2022-09-01T22:41:29;486.90;2380.80
55151;DHT22;41041;43.162;20.538;2022-09-01T22:43:55;486.90;2380.80
55151;DHT22;41041;43.162;20.538;2022-09-01T22:46:22;487.00;2380.80
55151;DHT22;41041;43.162;20.538;2022-09-01T22:48:48;487.10;2380.80
55151;DHT22;41041;43.162;20.538;2022-09-01T22:51:14;487.20;2380.80
55151;DHT22;41041;43.162;20.538;2022-09-01T22:53:41;487.20;2380.80
55151;DHT22;41041;43.162;20.538;2022-09-01T22:56:28;487.10;2380.80
55151;DHT22;41041;43.162;20.538;2022-09-01T22:59:07;487.00;2380.80
55151;DHT22;41041;43.162;20.538;2022-09-01T23:01:36;487.00;2380.80
55151;DHT22;41041;43.162;20.538;2022-09-01T23:04:05;487.00;2380.80
55151;DHT22;41041;43.162;20.538;2022-09-01T23:06:32;487.10;2380.80
55151;DHT22;41041;43.162;20.538;2022-09-01T23:08:59;487.20;2380.80
55151;DHT22;41041;43.162;20.538;2022-09-01T23:11:26;487.20;2380.80
55151;DHT22;41041;43.162;20.538;2022-09-01T23:13:53;487.30;2380.80
55151;DHT22;41041;43.162;20.538;2022-09-01T23:16:20;487.20;2380.80
55151;DHT22;41041;43.162;20.538;2022-09-01T23:18:49;487.20;2380.80
55151;DHT22;41041;43.162;20.538;2022-09-01T23:21:18;487.30;2380.80
55151;DHT22;41041;43.162;20.538;2022-09-01T23:23:44;487.20;2380.80
55151;DHT22;41041;43.162;20.538;2022-09-01T23:26:12;487.10;2380.80
55151;DHT22;41041;43.162;20.538;2022-09-01T23:28:39;487.00;2380.80
55151;DHT22;41041;43.162;20.538;2022-09-01T23:31:10;486.90;2380.80
55151;DHT22;41041;43.162;20.538;2022-09-01T23:33:36;486.90;2380.80
55151;DHT22;41041;43.162;20.538;2022-09-01T23:36:07;486.90;2380.80
55151;DHT22;41041;43.162;20.538;2022-09-01T23:38:35;486.70;2380.80
55151;DHT22;41041;43.162;20.538;2022-09-01T23:41:08;486.80;2380.80
55151;DHT22;41041;43.162;20.538;2022-09-01T23:43:34;486.80;2380.80
55151;DHT22;41041;43.162;20.538;2022-09-01T23:46:00;486.70;2380.80
55151;DHT22;41041;43.162;20.538;2022-09-01T23:48:26;486.80;2380.80
55151;DHT22;41041;43.162;20.538;2022-09-01T23:51:07;486.80;2380.80
55151;DHT22;41041;43.162;20.538;2022-09-01T23:53:34;486.80;2380.80
55151;DHT22;41041;43.162;20.538;2022-09-01T23:56:02;486.80;2380.80
55151;DHT22;41041;43.162;20.538;2022-09-01T23:58:29;486.90;2380.80
